Time;durP1;ratioP1;P1;durP2;ratioP2;P2;SDS_P1;SDS_P2;PMS_P1;PMS_P2;Temp;Humidity;BMP_temperature;BMP_pressure;BME280_temperature;BME280_humidity;BME280_pressure;Samples;Min_cycle;Max_cycle;Signal;HPM_P1;HPM_P2
2022/11/03 00:00:11;;;;;;;;;;;;;;;26.53;43.65;94604.41;4953442;28;7320;-70
2022/11/03 00:02:46;;;;;;;;;;;;;;;26.51;43.03;94599.38;4931090;28;6994;-70
2022/11/03 00:08:22;;;;;;;;;;;;;;;26.47;43.61;94596.16;4899853;29;7510;-69
2022/11/03 00:11:28;;;;;;;;;;;;;;;26.49;43.80;94601.91;4906859;29;7273;-70
2022/11/03 00:14:04;;;;;;;;;;;;;;;26.46;43.08;94594.66;4896649;29;7247;-69
2022/11/03 00:16:32;;;;;;;;;;;;;;;26.46;43.56;94604.94;4877901;29;7247;-70
2022/11/03 00:19:16;;;;;;;;;;;;;;;26.45;43.59;94589.63;4893501;29;7508;-69
2022/11/03 00:21:42;;;;;;;;;;;;;;;26.44;43.59;94593.69;4894679;29;7364;-70
2022/11/03 00:24:08;;;;;;;;;;;;;;;26.42;43.89;94596.19;4880907;29;7391;-70
2022/11/03 00:26:35;;;;;;;;;;;;;;;26.41;43.49;94589.94;4893470;29;7282;-70
2022/11/03 00:29:10;;;;;;;;;;;;;;;26.43;43.48;94581.13;4886818;29;8924;-69
2022/11/03 00:31:45;;;;;;;;;;;;;;;26.42;43.17;94576.88;4884052;29;7030;-70
2022/11/03 00:34:48;;;;;;;;;;;;;;;26.41;43.86;94575.38;4879210;29;7272;-70
2022/11/03 00:37:33;;;;;;;;;;;;;;;26.39;43.45;94577.91;4862251;29;8913;-70
2022/11/03 00:40:01;;;;;;;;;;;;;;;26.38;43.92;94570.91;4864678;29;8885;-69
2022/11/03 00:42:37;;;;;;;;;;;;;;;26.37;43.78;94563.88;4870601;29;7214;-69
2022/11/03 00:45:29;;;;;;;;;;;;;;;26.35;43.94;94566.41;4946704;28;7482;-69
2022/11/03 00:51:11;;;;;;;;;;;;;;;26.34;43.88;94562.16;4943481;28;7238;-68
2022/11/03 00:54:09;;;;;;;;;;;;;;;26.31;43.47;94554.91;4930916;28;7742;-69
2022/11/03 00:56:40;;;;;;;;;;;;;;;26.30;43.71;94550.63;4942752;28;7377;-70
2022/11/03 00:59:38;;;;;;;;;;;;;;;26.30;43.28;94551.38;4934102;28;7248;-70
2022/11/03 01:02:25;;;;;;;;;;;;;;;26.31;43.80;94549.38;4924052;29;9335;-70
2022/11/03 01:07:53;;;;;;;;;;;;;;;26.28;44.02;94544.88;4934354;29;9121;-69
2022/11/03 01:10:19;;;;;;;;;;;;;;;26.27;43.93;94532.38;4918093;29;7286;-69
2022/11/03 01:12:53;;;;;;;;;;;;;;;26.25;43.97;94529.38;4933542;28;6970;-69
2022/11/03 01:15:30;;;;;;;;;;;;;;;26.25;43.56;94521.88;4917545;29;7383;-70
2022/11/03 01:17:56;;;;;;;;;;;;;;;26.24;43.60;94523.13;4935971;28;6987;-69
2022/11/03 01:20:55;;;;;;;;;;;;;;;26.21;43.70;94526.88;4945766;28;9168;-69
2022/11/03 01:23:24;;;;;;;;;;;;;;;26.20;43.75;94522.63;4899185;29;7231;-68
2022/11/03 01:25:50;;;;;;;;;;;;;;;26.21;43.76;94523.41;4894830;29;7422;-70
2022/11/03 01:28:18;;;;;;;;;;;;;;;26.16;43.61;94517.38;4894857;29;8835;-69
2022/11/03 01:30:44;;;;;;;;;;;;;;;26.19;43.54;94521.13;4896325;29;7311;-69
2022/11/03 01:33:10;;;;;;;;;;;;;;;26.16;44.12;94514.63;4896463;29;7357;-69
2022/11/03 01:35:36;;;;;;;;;;;;;;;26.14;44.14;94519.91;4896313;29;6995;-69
2022/11/03 01:38:04;;;;;;;;;;;;;;;26.14;44.17;94524.69;4898540;29;8887;-69
2022/11/03 01:40:40;;;;;;;;;;;;;;;26.14;43.55;94530.94;4907442;29;7060;-69
2022/11/03 01:43:21;;;;;;;;;;;;;;;26.13;44.26;94526.69;4896834;29;6987;-69
2022/11/03 01:46:41;;;;;;;;;;;;;;;26.16;43.61;94525.66;4906669;29;7320;-68
2022/11/03 01:49:17;;;;;;;;;;;;;;;26.13;43.71;94528.69;4892081;29;9635;-69
2022/11/03 01:52:35;;;;;;;;;;;;;;;26.12;44.46;94524.47;4900104;29;7507;-70
2022/11/03 01:55:35;;;;;;;;;;;;;;;26.11;43.77;94515.44;4851647;29;9749;-70
2022/11/03 01:58:35;;;;;;;;;;;;;;;26.10;44.15;94519.44;4817623;29;7264;-69
2022/11/03 02:01:37;;;;;;;;;;;;;;;26.11;44.35;94512.69;4799042;29;7452;-69
2022/11/03 02:04:16;;;;;;;;;;;;;;;26.10;43.88;94510.41;4761272;30;8583;-70
2022/11/03 02:06:42;;;;;;;;;;;;;;;26.10;43.79;94499.38;4778977;29;8643;-70
2022/11/03 02:09:10;;;;;;;;;;;;;;;26.09;43.75;94495.91;4779850;29;7689;-68
2022/11/03 02:12:08;;;;;;;;;;;;;;;26.11;44.33;94498.91;4763796;30;7502;-70
2022/11/03 02:14:41;;;;;;;;;;;;;;;26.07;43.83;94490.13;4766034;30;7719;-69
2022/11/03 02:17:11;;;;;;;;;;;;;;;26.09;43.80;94478.59;4751494;30;7703;-70
2022/11/03 02:20:18;;;;;;;;;;;;;;;26.10;44.29;94488.34;4769108;30;7656;-69
2022/11/03 02:22:57;;;;;;;;;;;;;;;26.08;43.87;94483.38;4765113;29;8653;-70
2022/11/03 02:25:44;;;;;;;;;;;;;;;26.05;43.64;94481.63;4784891;29;7427;-69
2022/11/03 02:28:14;;;;;;;;;;;;;;;26.04;44.01;94473.84;4797021;29;7300;-70
2022/11/03 02:31:09;;;;;;;;;;;;;;;26.00;43.72;94474.13;4791307;29;7231;-70
2022/11/03 02:34:03;;;;;;;;;;;;;;;26.04;44.30;94476.59;4805183;29;7355;-69
2022/11/03 02:36:35;;;;;;;;;;;;;;;26.04;43.42;94477.34;4817608;29;7221;-70
2022/11/03 02:39:39;;;;;;;;;;;;;;;26.04;44.14;94471.84;4973211;28;7270;-70
2022/11/03 02:42:18;;;;;;;;;;;;;;;26.03;43.84;94453.78;4992039;28;7010;-69
2022/11/03 02:45:00;;;;;;;;;;;;;;;26.03;43.70;94447.56;4990206;28;7334;-70
2022/11/03 02:47:58;;;;;;;;;;;;;;;26.02;43.51;94444.03;4971084;28;7304;-69
2022/11/03 02:50:32;;;;;;;;;;;;;;;26.02;43.83;94437.78;4951500;28;9501;-69
2022/11/03 02:52:59;;;;;;;;;;;;;;;25.99;43.79;94449.84;4944961;28;8518;-69
2022/11/03 02:55:39;;;;;;;;;;;;;;;25.99;43.18;94445.06;4928600;29;9400;-70
2022/11/03 02:58:23;;;;;;;;;;;;;;;25.98;43.53;94443.56;4928116;29;7216;-69
2022/11/03 03:00:49;;;;;;;;;;;;;;;25.97;43.84;94436.56;4920924;29;8251;-69
2022/11/03 03:03:39;;;;;;;;;;;;;;;25.98;44.44;94424.28;4937238;28;9058;-70
2022/11/03 03:06:21;;;;;;;;;;;;;;;25.97;43.33;94428.28;4938672;28;9749;-69
2022/11/03 03:09:00;;;;;;;;;;;;;;;25.97;43.48;94414.50;4954741;28;7583;-70
2022/11/03 03:11:52;;;;;;;;;;;;;;;25.97;43.39;94411.75;4944068;28;7587;-69
2022/11/03 03:14:25;;;;;;;;;;;;;;;25.97;43.83;94411.75;4962465;28;9388;-70
2022/11/03 03:16:58;;;;;;;;;;;;;;;25.97;44.03;94411.75;4935120;28;7703;-70
2022/11/03 03:19:30;;;;;;;;;;;;;;;25.95;43.58;94408.75;4938535;28;7762;-70
2022/11/03 03:22:02;;;;;;;;;;;;;;;25.93;43.34;94407.78;4941596;28;6924;-69
2022/11/03 03:24:44;;;;;;;;;;;;;;;25.96;43.49;94410.28;4932184;28;9204;-70
2022/11/03 03:27:18;;;;;;;;;;;;;;;25.94;43.71;94410.03;4975685;28;7243;-70
2022/11/03 03:29:56;;;;;;;;;;;;;;;25.94;43.38;94412.78;4994102;28;7202;-70
2022/11/03 03:32:27;;;;;;;;;;;;;;;25.95;43.80;94406.00;4978157;28;6960;-71
2022/11/03 03:35:26;;;;;;;;;;;;;;;25.96;43.10;94415.78;5009113;28;7223;-70
2022/11/03 03:38:16;;;;;;;;;;;;;;;25.95;43.65;94413.53;4984871;28;8355;-70
2022/11/03 03:41:01;;;;;;;;;;;;;;;25.91;43.45;94411.06;4973039;28;7079;-70
2022/11/03 03:43:31;;;;;;;;;;;;;;;25.92;43.96;94409.81;4995770;28;7187;-70
2022/11/03 03:46:24;;;;;;;;;;;;;;;25.93;43.15;94402.25;4994541;28;7162;-70
2022/11/03 03:48:50;;;;;;;;;;;;;;;25.93;43.38;94397.50;4963529;28;9335;-70
2022/11/03 03:51:36;;;;;;;;;;;;;;;25.95;43.23;94381.19;4977060;28;7175;-70
2022/11/03 03:54:30;;;;;;;;;;;;;;;25.93;43.06;94377.47;4980230;28;9283;-70
2022/11/03 03:57:19;;;;;;;;;;;;;;;25.93;43.04;94366.44;4978563;28;7003;-70
2022/11/03 03:59:53;;;;;;;;;;;;;;;25.89;43.51;94365.97;4994662;28;7150;-70
2022/11/03 04:02:28;;;;;;;;;;;;;;;25.90;43.93;94370.97;4994797;28;7249;-70
2022/11/03 04:05:03;;;;;;;;;;;;;;;25.89;43.87;94368.72;4994730;28;8991;-70
2022/11/03 04:07:55;;;;;;;;;;;;;;;25.87;42.94;94372.00;4981178;28;9386;-70
2022/11/03 04:23:14;;;;;;;;;;;;;;;25.84;42.95;94350.97;4953281;28;7202;-70
2022/11/03 04:25:46;;;;;;;;;;;;;;;25.83;44.01;94352.25;4947916;28;7216;-70
2022/11/03 04:28:16;;;;;;;;;;;;;;;25.80;43.07;94347.75;4937285;28;7277;-70
2022/11/03 04:31:20;;;;;;;;;;;;;;;25.80;44.00;94336.00;4943839;28;7241;-71
2022/11/03 04:33:59;;;;;;;;;;;;;;;25.80;44.23;94331.22;4896326;29;7247;-70
2022/11/03 04:36:40;;;;;;;;;;;;;;;25.79;44.09;94329.75;4893901;29;7419;-70
2022/11/03 04:39:31;;;;;;;;;;;;;;;25.79;43.14;94340.03;4885352;29;6999;-70
2022/11/03 04:42:18;;;;;;;;;;;;;;;25.76;43.77;94330.75;4880945;29;7225;-70
2022/11/03 04:44:48;;;;;;;;;;;;;;;25.77;43.75;94334.28;4881025;29;8914;-70
2022/11/03 04:47:32;;;;;;;;;;;;;;;25.77;44.08;94326.75;4894837;29;6978;-70
2022/11/03 04:50:20;;;;;;;;;;;;;;;25.78;43.17;94327.50;4887937;29;7034;-70
2022/11/03 04:52:50;;;;;;;;;;;;;;;25.75;43.43;94312.72;4877219;29;7394;-69
2022/11/03 04:55:21;;;;;;;;;;;;;;;25.77;43.49;94318.50;4880939;29;7262;-71
2022/11/03 04:58:09;;;;;;;;;;;;;;;25.77;43.48;94312.25;4895438;29;7384;-71
2022/11/03 05:00:52;;;;;;;;;;;;;;;25.74;43.74;94311.25;4913592;29;7234;-70
2022/11/03 05:03:38;;;;;;;;;;;;;;;25.73;43.54;94301.47;4907070;29;9368;-70
2022/11/03 05:06:22;;;;;;;;;;;;;;;25.74;44.04;94294.72;4977917;28;8841;-70
2022/11/03 05:09:23;;;;;;;;;;;;;;;25.71;44.20;94292.25;4983527;28;7901;-70
2022/11/03 05:11:50;;;;;;;;;;;;;;;25.72;43.54;94291.72;4937589;28;8678;-70
2022/11/03 05:14:23;;;;;;;;;;;;;;;25.72;43.81;94286.22;4924583;28;7351;-70
2022/11/03 05:16:57;;;;;;;;;;;;;;;25.73;43.32;94287.69;4928914;28;7226;-70
2022/11/03 05:19:27;;;;;;;;;;;;;;;25.72;43.95;94294.50;4952719;28;7041;-71
2022/11/03 05:22:17;;;;;;;;;;;;;;;25.70;43.27;94283.25;4952776;28;6994;-70
2022/11/03 05:24:43;;;;;;;;;;;;;;;25.71;43.44;94289.50;4951529;28;7232;-70
2022/11/03 05:27:19;;;;;;;;;;;;;;;25.70;43.61;94279.72;4952360;28;7465;-71
2022/11/03 05:29:46;;;;;;;;;;;;;;;25.69;43.35;94272.72;4951956;28;7001;-69
2022/11/03 05:32:49;;;;;;;;;;;;;;;25.68;43.26;94262.97;4952382;28;7311;-71
2022/11/03 05:35:23;;;;;;;;;;;;;;;25.66;43.28;94258.00;4893448;29;8590;-71
2022/11/03 05:37:51;;;;;;;;;;;;;;;25.66;43.50;94266.25;4895326;29;6969;-70
2022/11/03 05:40:26;;;;;;;;;;;;;;;25.64;43.40;94266.03;4894979;29;7267;-70
2022/11/03 05:43:32;;;;;;;;;;;;;;;25.66;44.31;94252.47;4894952;29;7403;-69
2022/11/03 05:46:02;;;;;;;;;;;;;;;25.67;43.96;94256.72;4890861;29;7140;-70
2022/11/03 05:48:36;;;;;;;;;;;;;;;25.65;44.28;94256.47;4918550;29;7958;-71
2022/11/03 05:51:23;;;;;;;;;;;;;;;25.65;44.19;94248.22;4932463;28;7126;-69
2022/11/03 05:54:15;;;;;;;;;;;;;;;25.67;46.78;94244.94;4936980;28;7478;-71
2022/11/03 05:57:31;;;;;;;;;;;;;;;25.72;43.98;94257.94;4939877;28;9058;-70
2022/11/03 06:00:38;;;;;;;;;;;;;;;25.70;42.87;94258.44;4890736;29;7369;-70
2022/11/03 06:03:34;;;;;;;;;;;;;;;25.67;43.56;94248.44;4868082;29;6983;-70
2022/11/03 06:06:25;;;;;;;;;;;;;;;25.65;43.10;94258.47;4867945;29;9538;-71
2022/11/03 06:09:15;;;;;;;;;;;;;;;25.61;43.04;94258.78;4868884;29;8595;-70
2022/11/03 06:12:13;;;;;;;;;;;;;;;25.60;42.72;94257.28;4871024;29;7173;-69
2022/11/03 06:14:46;;;;;;;;;;;;;;;25.58;42.92;94256.31;4892144;29;8288;-71
2022/11/03 06:17:24;;;;;;;;;;;;;;;25.58;43.37;94254.28;4873108;29;8291;-70
2022/11/03 06:20:00;;;;;;;;;;;;;;;25.55;43.69;94257.31;4857231;29;7283;-70
2022/11/03 06:22:29;;;;;;;;;;;;;;;25.53;43.44;94252.34;4877610;29;9012;-71
2022/11/03 06:25:24;;;;;;;;;;;;;;;25.52;43.85;94241.81;4882491;29;7273;-71
2022/11/03 06:27:52;;;;;;;;;;;;;;;25.52;43.71;94242.56;4873284;29;6995;-71
2022/11/03 06:30:30;;;;;;;;;;;;;;;25.57;43.76;94233.53;4884537;29;6983;-71
2022/11/03 06:33:28;;;;;;;;;;;;;;;25.59;43.64;94224.75;4868548;29;9006;-71
2022/11/03 06:36:02;;;;;;;;;;;;;;;25.62;43.46;94213.44;4840864;29;9441;-70
2022/11/03 06:38:34;;;;;;;;;;;;;;;25.68;43.69;94211.38;4865587;29;7206;-70
2022/11/03 06:41:00;;;;;;;;;;;;;;;25.69;43.81;94212.88;4879777;29;7103;-70
2022/11/03 06:43:41;;;;;;;;;;;;;;;25.72;43.46;94214.59;4895533;29;7382;-70
2022/11/03 06:46:19;;;;;;;;;;;;;;;25.75;42.54;94221.09;4902678;29;7262;-70
2022/11/03 06:48:47;;;;;;;;;;;;;;;25.76;42.21;94219.81;4887170;29;7348;-71
2022/11/03 06:51:26;;;;;;;;;;;;;;;25.78;41.60;94229.06;4901523;29;7231;-70
2022/11/03 06:54:05;;;;;;;;;;;;;;;25.82;42.09;94228.78;4902591;29;8235;-71
2022/11/03 06:56:43;;;;;;;;;;;;;;;25.83;42.17;94222.00;4921345;29;8491;-70
2022/11/03 06:59:20;;;;;;;;;;;;;;;25.85;42.34;94211.97;4891295;29;7216;-71
2022/11/03 07:01:54;;;;;;;;;;;;;;;25.89;42.27;94208.91;4901247;29;7524;-70
2022/11/03 07:04:27;;;;;;;;;;;;;;;25.89;42.16;94206.91;4914166;29;10691;-70
2022/11/03 07:06:59;;;;;;;;;;;;;;;25.93;42.64;94193.59;4897509;29;7197;-70
2022/11/03 07:09:48;;;;;;;;;;;;;;;25.98;43.19;94197.53;4916735;29;6953;-70
2022/11/03 07:12:25;;;;;;;;;;;;;;;25.99;43.06;94194.25;4959312;28;7241;-71
2022/11/03 07:15:29;;;;;;;;;;;;;;;26.00;42.94;94184.00;4987800;28;7116;-70
2022/11/03 07:17:58;;;;;;;;;;;;;;;26.00;42.94;94190.25;4953623;28;7015;-71
2022/11/03 07:20:40;;;;;;;;;;;;;;;26.02;43.18;94182.22;4956499;28;7227;-70
2022/11/03 07:23:23;;;;;;;;;;;;;;;26.04;42.65;94178.94;4947674;28;6975;-70
2022/11/03 07:25:55;;;;;;;;;;;;;;;26.03;42.72;94177.47;4963909;28;7226;-70
2022/11/03 07:28:27;;;;;;;;;;;;;;;26.02;42.95;94181.47;4961237;28;7209;-71
2022/11/03 07:30:54;;;;;;;;;;;;;;;26.03;42.97;94180.94;4953073;28;8321;-71
2022/11/03 07:33:59;;;;;;;;;;;;;;;26.05;42.63;94170.16;4955567;28;9225;-70
2022/11/03 07:36:30;;;;;;;;;;;;;;;26.09;43.30;94175.41;4907070;29;7088;-71
2022/11/03 07:39:14;;;;;;;;;;;;;;;26.10;43.39;94169.38;4916043;29;9117;-70
2022/11/03 07:41:43;;;;;;;;;;;;;;;26.19;43.19;94178.56;4916826;29;8753;-70
2022/11/03 07:44:24;;;;;;;;;;;;;;;26.23;42.99;94181.75;4911939;29;8276;-70
2022/11/03 07:47:02;;;;;;;;;;;;;;;26.29;42.25;94183.19;4914560;29;7268;-70
2022/11/03 07:49:39;;;;;;;;;;;;;;;26.34;42.39;94176.13;4900831;29;10099;-70
2022/11/03 07:52:13;;;;;;;;;;;;;;;26.40;42.19;94171.25;4909360;29;7397;-70
2022/11/03 07:54:40;;;;;;;;;;;;;;;26.42;42.20;94172.25;4938745;28;7276;-72
2022/11/03 07:57:35;;;;;;;;;;;;;;;26.47;42.65;94156.88;4953520;28;7542;-70
2022/11/03 08:00:21;;;;;;;;;;;;;;;26.50;42.52;94170.38;4952128;28;7428;-71
2022/11/03 08:03:19;;;;;;;;;;;;;;;26.56;42.30;94170.28;4938480;28;7632;-69
2022/11/03 08:05:55;;;;;;;;;;;;;;;26.58;42.58;94160.22;4946262;28;7584;-71
2022/11/03 08:08:37;;;;;;;;;;;;;;;26.61;42.71;94158.44;4954226;28;7208;-71
2022/11/03 08:11:16;;;;;;;;;;;;;;;26.64;42.23;94155.38;4938188;28;7269;-71
2022/11/03 08:13:52;;;;;;;;;;;;;;;26.68;41.98;94152.31;4991433;28;7300;-71
2022/11/03 08:16:51;;;;;;;;;;;;;;;26.70;42.45;94150.53;4982955;28;7084;-71
2022/11/03 08:19:29;;;;;;;;;;;;;;;26.72;41.92;94141.72;4957173;28;7728;-71
2022/11/03 08:22:14;;;;;;;;;;;;;;;26.74;41.98;94133.69;4956101;28;7393;-71
2022/11/03 08:25:01;;;;;;;;;;;;;;;26.75;41.86;94132.44;4951771;28;7282;-71
2022/11/03 08:27:30;;;;;;;;;;;;;;;26.76;41.64;94144.94;4971142;28;9043;-71
2022/11/03 08:29:55;;;;;;;;;;;;;;;26.76;41.75;94144.94;4969118;28;7218;-70
2022/11/03 08:32:23;;;;;;;;;;;;;;;26.77;41.59;94160.25;4956684;28;8713;-69
2022/11/03 08:34:52;;;;;;;;;;;;;;;26.76;41.56;94139.44;4976910;28;7236;-71
2022/11/03 08:37:36;;;;;;;;;;;;;;;26.78;41.14;94134.13;4957520;28;7029;-70
2022/11/03 08:40:13;;;;;;;;;;;;;;;26.78;41.08;94137.63;4964646;28;8695;-68
2022/11/03 08:42:54;;;;;;;;;;;;;;;26.77;41.39;94138.16;4981212;28;7217;-71
2022/11/03 08:45:33;;;;;;;;;;;;;;;26.79;41.57;94141.91;4975838;28;9106;-70
2022/11/03 08:48:15;;;;;;;;;;;;;;;26.78;41.89;94145.91;4966093;28;7250;-71
2022/11/03 08:50:52;;;;;;;;;;;;;;;26.80;41.68;94145.38;4962510;28;7653;-71
2022/11/03 08:53:38;;;;;;;;;;;;;;;26.82;41.91;94148.38;4971478;28;8932;-71
2022/11/03 08:56:06;;;;;;;;;;;;;;;26.79;41.60;94139.13;4975863;28;7107;-71
2022/11/03 08:58:41;;;;;;;;;;;;;;;26.81;41.84;94138.59;4990583;28;9542;-70
2022/11/03 09:01:09;;;;;;;;;;;;;;;26.80;41.78;94128.81;4992301;28;7254;-70
2022/11/03 09:04:01;;;;;;;;;;;;;;;26.80;42.31;94142.63;4977226;28;7312;-71
2022/11/03 09:06:29;;;;;;;;;;;;;;;26.78;41.39;94134.88;4988835;28;8247;-71
2022/11/03 09:08:59;;;;;;;;;;;;;;;26.78;41.90;94134.13;4972051;28;7234;-71
2022/11/03 09:11:28;;;;;;;;;;;;;;;26.80;42.04;94145.38;4994605;28;7348;-70
2022/11/03 09:14:16;;;;;;;;;;;;;;;26.78;42.14;94134.13;4993750;28;7583;-70
2022/11/03 09:16:56;;;;;;;;;;;;;;;26.76;41.86;94142.19;4966505;28;8443;-70
2022/11/03 09:19:31;;;;;;;;;;;;;;;26.75;41.79;94135.91;4975607;28;7094;-70
2022/11/03 09:21:58;;;;;;;;;;;;;;;26.75;41.76;94135.19;4992738;28;7262;-70
2022/11/03 09:24:26;;;;;;;;;;;;;;;26.76;41.97;94128.38;4991737;28;9096;-71
2022/11/03 09:26:52;;;;;;;;;;;;;;;26.73;42.24;94121.91;4992362;28;7377;-71
2022/11/03 09:29:18;;;;;;;;;;;;;;;26.70;42.30;94133.97;4988139;28;7008;-71
2022/11/03 09:31:49;;;;;;;;;;;;;;;26.70;42.18;94135.97;4987723;28;7287;-70
2022/11/03 09:34:15;;;;;;;;;;;;;;;26.69;42.90;94140.75;4969301;28;7089;-71
2022/11/03 09:36:45;;;;;;;;;;;;;;;26.68;42.10;94147.56;4983725;28;9251;-70
2022/11/03 09:39:16;;;;;;;;;;;;;;;26.65;42.14;94148.59;4988842;28;8297;-70
2022/11/03 09:41:42;;;;;;;;;;;;;;;26.65;42.53;94156.13;4986073;28;9010;-69
2022/11/03 09:44:16;;;;;;;;;;;;;;;26.63;42.41;94151.13;4992826;28;7384;-70
2022/11/03 09:46:52;;;;;;;;;;;;;;;26.62;42.91;94173.72;4994675;28;7319;-70
2022/11/03 09:49:20;;;;;;;;;;;;;;;26.60;42.69;94168.00;4974828;28;7190;-71
2022/11/03 09:51:56;;;;;;;;;;;;;;;26.59;42.49;94161.72;4990795;28;7401;-70
2022/11/03 09:54:26;;;;;;;;;;;;;;;26.59;42.22;94172.00;4998267;28;7289;-71
2022/11/03 09:57:13;;;;;;;;;;;;;;;26.57;42.72;94163.50;4990685;28;7228;-70
2022/11/03 09:59:54;;;;;;;;;;;;;;;26.55;42.50;94172.31;4972872;28;7196;-71
2022/11/03 10:02:24;;;;;;;;;;;;;;;26.55;42.38;94177.06;4990991;28;8954;-71
2022/11/03 10:04:55;;;;;;;;;;;;;;;26.53;43.26;94163.81;4991366;28;7329;-70
2022/11/03 10:07:43;;;;;;;;;;;;;;;26.52;42.54;94161.56;5001165;28;9094;-70
2022/11/03 10:10:20;;;;;;;;;;;;;;;26.50;42.74;94156.56;4990109;28;7004;-70
2022/11/03 10:13:21;;;;;;;;;;;;;;;26.50;43.15;94151.06;4976733;28;9830;-71
2022/11/03 10:15:50;;;;;;;;;;;;;;;26.48;42.35;94147.34;4951125;28;8902;-71
2022/11/03 10:18:36;;;;;;;;;;;;;;;26.48;43.24;94147.34;4931057;28;10592;-71
2022/11/03 10:21:30;;;;;;;;;;;;;;;26.45;43.08;94145.59;4947830;29;7194;-70
2022/11/03 10:24:16;;;;;;;;;;;;;;;26.44;43.08;94144.88;4944363;28;7061;-71
2022/11/03 10:26:58;;;;;;;;;;;;;;;26.44;42.75;94138.63;4940796;29;7229;-70
2022/11/03 10:29:27;;;;;;;;;;;;;;;26.41;42.59;94118.34;4949183;29;7279;-71
2022/11/03 10:31:55;;;;;;;;;;;;;;;26.42;43.25;94114.31;4926064;29;7395;-71
2022/11/03 10:34:36;;;;;;;;;;;;;;;26.41;42.61;94107.31;4928207;29;7166;-70
2022/11/03 10:37:25;;;;;;;;;;;;;;;26.40;43.24;94105.84;4947580;29;8748;-70
2022/11/03 10:39:54;;;;;;;;;;;;;;;26.39;43.16;94095.31;4952285;28;7222;-70
2022/11/03 10:42:32;;;;;;;;;;;;;;;26.38;42.88;94086.28;4951528;29;7044;-70
2022/11/03 10:45:19;;;;;;;;;;;;;;;26.36;42.83;94083.31;4952245;29;7456;-71
2022/11/03 10:48:09;;;;;;;;;;;;;;;26.37;43.08;94084.06;4946847;29;7293;-70
2022/11/03 10:50:43;;;;;;;;;;;;;;;26.38;42.87;94075.25;4943663;29;6994;-69
2022/11/03 10:53:19;;;;;;;;;;;;;;;26.36;42.22;94063.28;4977201;28;7273;-71
2022/11/03 10:55:47;;;;;;;;;;;;;;;26.36;42.86;94055.72;4994559;28;7274;-70
2022/11/03 10:58:13;;;;;;;;;;;;;;;26.36;42.84;94058.50;4982348;28;7288;-70
2022/11/03 11:00:44;;;;;;;;;;;;;;;26.37;42.98;94050.97;4989554;28;7183;-70
2022/11/03 11:03:13;;;;;;;;;;;;;;;26.37;42.76;94035.16;4968307;28;7249;-70
2022/11/03 11:05:58;;;;;;;;;;;;;;;26.36;42.81;94017.13;4990524;28;7020;-69
2022/11/03 11:09:05;;;;;;;;;;;;;;;26.35;43.21;94020.41;4975352;28;7346;-71
2022/11/03 11:11:31;;;;;;;;;;;;;;;26.35;43.21;94023.94;4993979;28;7250;-70
2022/11/03 11:14:37;;;;;;;;;;;;;;;26.36;42.85;94016.41;4972790;28;7419;-70
2022/11/03 11:17:05;;;;;;;;;;;;;;;26.34;42.92;94013.44;4985403;28;7192;-70
2022/11/03 11:23:34;;;;;;;;;;;;;;;26.33;43.18;94000.91;4993132;28;8257;-69
2022/11/03 11:26:25;;;;;;;;;;;;;;;26.31;42.71;93986.91;4991663;28;7042;-70
2022/11/03 11:29:09;;;;;;;;;;;;;;;26.32;42.90;93967.06;4985692;28;6999;-71
2022/11/03 11:31:39;;;;;;;;;;;;;;;26.32;43.52;93971.84;4992653;28;9121;-71
2022/11/03 11:34:07;;;;;;;;;;;;;;;26.31;43.68;93962.09;4989058;28;7048;-71
2022/11/03 11:37:05;;;;;;;;;;;;;;;26.30;43.32;93942.03;4995400;28;6985;-71
2022/11/03 11:39:49;;;;;;;;;;;;;;;26.30;43.53;93938.53;4934620;29;7022;-70
2022/11/03 11:42:21;;;;;;;;;;;;;;;26.29;43.60;93935.03;4921082;28;7246;-70
2022/11/03 11:44:56;;;;;;;;;;;;;;;26.27;43.82;93918.28;4930272;28;9008;-70
2022/11/03 11:47:56;;;;;;;;;;;;;;;26.29;43.44;93920.50;4911722;29;7285;-70
2022/11/03 11:50:32;;;;;;;;;;;;;;;26.29;43.88;93912.25;4889083;29;6989;-70
2022/11/03 11:53:11;;;;;;;;;;;;;;;26.29;44.40;93917.75;4914035;29;9396;-70
2022/11/03 11:56:11;;;;;;;;;;;;;;;26.30;43.99;93902.69;4904233;29;7208;-70
2022/11/03 11:58:45;;;;;;;;;;;;;;;26.31;43.98;93887.63;4905687;29;7213;-70
2022/11/03 12:01:53;;;;;;;;;;;;;;;26.31;43.29;93887.63;4912420;29;8521;-70
2022/11/03 12:04:36;;;;;;;;;;;;;;;26.29;44.01;93874.41;4899441;29;7241;-71
2022/11/03 12:07:32;;;;;;;;;;;;;;;26.27;43.46;93856.88;4909397;29;7258;-70
2022/11/03 12:10:19;;;;;;;;;;;;;;;26.27;44.22;93854.88;4911887;29;8714;-69
2022/11/03 12:12:58;;;;;;;;;;;;;;;26.29;44.20;93862.63;4899543;29;9009;-70
2022/11/03 12:15:56;;;;;;;;;;;;;;;26.27;44.26;93840.34;4907141;28;9009;-71
2022/11/03 12:18:38;;;;;;;;;;;;;;;26.27;43.86;93834.84;4938357;28;7669;-71
2022/11/03 12:21:46;;;;;;;;;;;;;;;26.26;44.39;93834.09;4937674;28;9288;-70
2022/11/03 12:24:47;;;;;;;;;;;;;;;26.28;44.25;93819.75;4895790;29;7404;-70
2022/11/03 12:27:23;;;;;;;;;;;;;;;26.27;44.24;93813.53;4918316;29;7247;-70
2022/11/03 12:29:53;;;;;;;;;;;;;;;26.27;44.02;93807.25;4918257;29;7245;-70
2022/11/03 12:32:22;;;;;;;;;;;;;;;26.26;43.77;93789.97;4933612;29;7250;-70
2022/11/03 12:34:55;;;;;;;;;;;;;;;26.24;44.19;93767.72;4933370;29;9063;-70
2022/11/03 12:37:31;;;;;;;;;;;;;;;26.22;43.72;93756.47;4938464;28;6994;-70
2022/11/03 12:40:10;;;;;;;;;;;;;;;26.22;43.64;93753.72;4933934;29;9454;-69
2022/11/03 12:43:01;;;;;;;;;;;;;;;26.22;43.63;93762.00;4934811;29;8905;-70
2022/11/03 12:45:37;;;;;;;;;;;;;;;26.21;43.64;93768.03;4933923;29;7351;-70
2022/11/03 12:48:18;;;;;;;;;;;;;;;26.20;43.66;93772.06;4933781;29;7262;-70
2022/11/03 12:50:56;;;;;;;;;;;;;;;26.20;44.20;93778.31;4927732;29;8239;-70
2022/11/03 12:53:41;;;;;;;;;;;;;;;26.22;44.22;93764.00;4934828;28;6992;-70
2022/11/03 12:56:08;;;;;;;;;;;;;;;26.20;43.59;93761.78;4918853;29;7202;-69
2022/11/03 12:59:00;;;;;;;;;;;;;;;26.20;43.42;93772.06;4934723;29;6969;-70
2022/11/03 13:01:35;;;;;;;;;;;;;;;26.19;43.68;93762.31;4988054;28;9360;-70
2022/11/03 13:04:09;;;;;;;;;;;;;;;26.21;43.55;93746.00;4976834;28;7014;-70
2022/11/03 13:06:54;;;;;;;;;;;;;;;26.19;44.24;93740.97;4976770;28;8827;-70
2022/11/03 13:09:34;;;;;;;;;;;;;;;26.18;43.19;93747.78;4990505;28;7103;-69
2022/11/03 13:12:33;;;;;;;;;;;;;;;26.12;42.90;93728.56;4976822;28;8457;-69
2022/11/03 13:15:27;;;;;;;;;;;;;;;26.10;42.20;93702.81;4990302;28;9115;-70
2022/11/03 13:18:08;;;;;;;;;;;;;;;26.13;42.55;93697.00;4931040;29;7248;-69
2022/11/03 13:20:34;;;;;;;;;;;;;;;26.12;42.21;93689.28;4917620;29;9151;-71
2022/11/03 13:23:21;;;;;;;;;;;;;;;26.10;41.72;93678.75;4930566;29;7012;-70
2022/11/03 13:25:51;;;;;;;;;;;;;;;26.09;42.13;93673.78;4918034;29;9707;-69
2022/11/03 13:28:20;;;;;;;;;;;;;;;26.07;41.71;93682.56;4916393;29;7243;-70
2022/11/03 13:30:49;;;;;;;;;;;;;;;26.07;41.11;93674.28;4927106;29;6876;-70
2022/11/03 13:33:18;;;;;;;;;;;;;;;26.06;41.17;93680.31;4914462;29;7216;-70
2022/11/03 13:35:56;;;;;;;;;;;;;;;26.07;42.28;93662.53;4925131;29;7227;-70
2022/11/03 13:38:33;;;;;;;;;;;;;;;26.05;42.20;93665.81;4916548;29;7415;-70
2022/11/03 13:41:08;;;;;;;;;;;;;;;26.04;41.93;93667.09;4932896;29;7030;-70
2022/11/03 13:43:49;;;;;;;;;;;;;;;26.03;42.57;93662.84;4914402;29;7314;-70
2022/11/03 13:46:53;;;;;;;;;;;;;;;26.04;42.94;93660.81;4910140;29;6995;-70
2022/11/03 13:49:54;;;;;;;;;;;;;;;26.07;41.84;93660.53;4918721;29;7235;-70
2022/11/03 13:52:36;;;;;;;;;;;;;;;26.06;42.55;93664.53;4913537;29;7252;-70
2022/11/03 13:55:02;;;;;;;;;;;;;;;26.06;42.38;93650.00;4940559;28;7308;-70
2022/11/03 13:57:30;;;;;;;;;;;;;;;26.01;42.47;93637.81;4954587;28;7385;-70
2022/11/03 13:59:57;;;;;;;;;;;;;;;26.05;42.71;93630.00;4950879;28;7871;-70
2022/11/03 14:02:24;;;;;;;;;;;;;;;26.03;42.60;93626.28;4970091;28;7247;-71
2022/11/03 14:05:12;;;;;;;;;;;;;;;26.00;43.21;93617.06;4955596;28;6993;-71
2022/11/03 14:07:44;;;;;;;;;;;;;;;26.02;43.15;93600.00;4956185;28;7050;-71
2022/11/03 14:10:10;;;;;;;;;;;;;;;26.02;42.44;93586.22;4966574;28;7037;-70
2022/11/03 14:12:39;;;;;;;;;;;;;;;25.97;43.14;93567.78;4971753;28;9286;-71
2022/11/03 14:15:10;;;;;;;;;;;;;;;25.99;42.73;93565.25;4974613;28;8181;-69
2022/11/03 14:17:38;;;;;;;;;;;;;;;25.97;43.73;93560.25;4970079;28;7226;-70
2022/11/03 14:20:05;;;;;;;;;;;;;;;25.97;42.52;93548.47;4954905;28;7214;-70
2022/11/03 14:22:31;;;;;;;;;;;;;;;25.97;43.40;93554.00;4959689;28;7100;-69
2022/11/03 14:25:06;;;;;;;;;;;;;;;25.95;43.60;93565.56;4970206;28;7093;-69
2022/11/03 14:27:34;;;;;;;;;;;;;;;25.97;42.85;93562.25;4975080;28;9325;-69